Time,TemperatureF,DewpointF,PressureIn,WindDirection,WindDirectionDegrees,WindSpeedMPH,WindSpeedGustMPH,Humidity,HourlyPrecipIn,Conditions,Clouds,dailyrainin,SoftwareType,DateUTC
2013-01-30 00:00:00,54.7,46.3,29.47,SW,225,2.5,2.9,73,0.00,,,0.00,WUHU216HW,2013-01-30 05:00:00,
2013-01-30 00:03:00,54.9,46.5,29.47,SW,225,2.2,2.9,73,0.00,,,0.00,WUHU216HW,2013-01-30 05:03:00,
2013-01-30 00:08:00,54.7,46.3,29.46,SE,135,0.4,3.1,73,0.00,,,0.00,WUHU216HW,2013-01-30 05:08:00,
2013-01-30 00:13:00,54.7,46.3,29.45,SSW,203,0.7,3.1,73,0.00,,,0.00,WUHU216HW,2013-01-30 05:13:00,
2013-01-30 00:18:00,54.7,46.6,29.45,SSW,203,0.9,2.2,74,0.00,,,0.00,WUHU216HW,2013-01-30 05:18:00,
2013-01-30 00:23:00,54.7,46.6,29.44,ESE,113,2.2,2.2,74,0.00,,,0.00,WUHU216HW,2013-01-30 05:23:00,
2013-01-30 00:28:00,54.9,46.7,29.44,SW,225,2.0,2.2,74,0.00,,,0.00,WUHU216HW,2013-01-30 05:28:00,
2013-01-30 00:33:00,54.9,46.7,29.43,ENE,68,0.7,2.0,74,0.00,,,0.00,WUHU216HW,2013-01-30 05:33:00,
2013-01-30 00:38:00,54.9,46.7,29.43,SW,225,2.0,3.4,74,0.00,,,0.00,WUHU216HW,2013-01-30 05:38:00,
2013-01-30 00:43:00,54.9,46.7,29.42,NE,45,0.7,3.4,74,0.00,,,0.00,WUHU216HW,2013-01-30 05:43:00,
2013-01-30 00:48:00,54.9,46.7,29.41,ESE,113,1.6,1.8,74,0.00,,,0.00,WUHU216HW,2013-01-30 05:48:00,
2013-01-30 00:53:00,55.1,48.0,29.40,SW,225,2.2,2.5,77,0.00,,,0.00,WUHU216HW,2013-01-30 05:53:00,
2013-01-30 00:58:00,55.1,48.0,29.40,West,270,1.1,5.1,77,0.00,,,0.00,WUHU216HW,2013-01-30 05:58:00,
2013-01-30 01:03:00,55.3,48.2,29.39,SSW,203,0.7,5.1,77,0.00,,,0.00,WUHU216HW,2013-01-30 06:03:00,
2013-01-30 01:08:00,55.4,48.3,29.39,East,90,3.1,3.1,77,0.00,,,0.00,WUHU216HW,2013-01-30 06:08:00,
2013-01-30 01:13:00,55.6,48.5,29.38,SE,135,0.2,3.1,77,0.00,,,0.00,WUHU216HW,2013-01-30 06:13:00,
2013-01-30 01:18:00,55.8,49.0,29.38,SE,135,1.8,5.6,78,0.00,,,0.00,WUHU216HW,2013-01-30 06:18:00,
2013-01-30 01:23:00,55.8,49.0,29.36,WSW,248,1.6,5.6,78,0.00,,,0.00,WUHU216HW,2013-01-30 06:23:00,
2013-01-30 01:28:00,56.0,49.1,29.36,SE,135,2.7,4.3,78,0.00,,,0.00,WUHU216HW,2013-01-30 06:28:00,
2013-01-30 01:33:00,56.0,49.1,29.36,East,90,1.8,4.3,78,0.00,,,0.00,WUHU216HW,2013-01-30 06:33:00,
2013-01-30 01:38:00,56.2,49.3,29.35,SW,225,1.8,2.9,78,0.00,,,0.00,WUHU216HW,2013-01-30 06:38:00,
2013-01-30 01:43:00,56.2,49.7,29.35,SSW,203,2.0,2.9,79,0.00,,,0.00,WUHU216HW,2013-01-30 06:43:00,
2013-01-30 01:48:00,56.2,49.7,29.34,WSW,248,2.5,2.7,79,0.00,,,0.00,WUHU216HW,2013-01-30 06:48:00,
2013-01-30 01:53:00,56.2,49.7,29.33,ESE,113,1.8,2.5,79,0.00,,,0.00,WUHU216HW,2013-01-30 06:53:00,
2013-01-30 01:58:00,56.2,49.7,29.33,ENE,68,2.2,2.5,79,0.00,,,0.00,WUHU216HW,2013-01-30 06:58:00,
2013-01-30 02:03:00,56.2,49.7,29.32,SE,135,1.1,3.1,79,0.00,,,0.00,WUHU216HW,2013-01-30 07:03:00,
2013-01-30 02:08:00,56.2,49.7,29.32,WNW,293,2.0,3.1,79,0.00,,,0.00,WUHU216HW,2013-01-30 07:08:00,
2013-01-30 02:13:00,56.3,49.9,29.32,East,90,3.1,4.0,79,0.00,,,0.00,WUHU216HW,2013-01-30 07:13:00,
2013-01-30 02:18:00,56.3,49.9,29.31,ENE,68,2.7,4.0,79,0.00,,,0.00,WUHU216HW,2013-01-30 07:18:00,
2013-01-30 02:23:00,56.5,50.0,29.31,NNE,23,2.5,3.8,79,0.00,,,0.00,WUHU216HW,2013-01-30 07:23:00,
2013-01-30 02:28:00,56.5,50.0,29.30,SW,225,2.9,3.1,79,0.00,,,0.00,WUHU216HW,2013-01-30 07:28:00,
2013-01-30 02:33:00,56.9,50.4,29.30,ESE,113,1.1,3.4,79,0.00,,,0.00,WUHU216HW,2013-01-30 07:33:00,
2013-01-30 02:38:00,57.1,50.2,29.31,SE,135,2.0,4.7,78,0.00,,,0.00,WUHU216HW,2013-01-30 07:38:00,
2013-01-30 02:43:00,57.2,50.4,29.30,SSE,158,2.7,4.7,78,0.00,,,0.00,WUHU216HW,2013-01-30 07:43:00,
2013-01-30 02:48:00,57.6,50.8,29.29,WSW,248,2.9,4.0,78,0.00,,,0.00,WUHU216HW,2013-01-30 07:48:00,
2013-01-30 02:53:00,58.0,51.1,29.29,SW,225,1.8,6.3,78,0.00,,,0.00,WUHU216HW,2013-01-30 07:53:00,
2013-01-30 02:58:00,58.3,51.8,29.29,SW,225,3.4,6.3,79,0.00,,,0.00,WUHU216HW,2013-01-30 07:58:00,
2013-01-30 03:03:00,58.3,51.8,29.28,WSW,248,3.6,4.0,79,0.00,,,0.00,WUHU216HW,2013-01-30 08:03:00,
2013-01-30 03:08:00,58.5,52.0,29.28,ENE,68,2.5,4.5,79,0.00,,,0.00,WUHU216HW,2013-01-30 08:08:00,
2013-01-30 03:13:00,58.5,52.0,29.28,SW,225,1.8,4.5,79,0.00,,,0.00,WUHU216HW,2013-01-30 08:13:00,
2013-01-30 03:18:00,58.7,52.2,29.28,SW,225,3.4,4.5,79,0.00,,,0.00,WUHU216HW,2013-01-30 08:18:00,
2013-01-30 03:23:00,58.9,52.4,29.28,SSE,158,1.8,4.7,79,0.00,,,0.00,WUHU216HW,2013-01-30 08:23:00,
2013-01-30 03:28:00,59.0,52.6,29.27,NW,315,2.9,4.7,79,0.00,,,0.00,WUHU216HW,2013-01-30 08:28:00,
2013-01-30 03:33:00,59.4,52.9,29.26,SW,225,4.0,4.0,79,0.00,,,0.00,WUHU216HW,2013-01-30 08:33:00,
2013-01-30 03:38:00,59.6,53.1,29.26,SE,135,1.6,6.7,79,0.00,,,0.00,WUHU216HW,2013-01-30 08:38:00,
2013-01-30 03:43:00,59.8,53.3,29.25,SSE,158,1.8,6.7,79,0.00,,,0.00,WUHU216HW,2013-01-30 08:43:00,
2013-01-30 03:48:00,59.9,53.5,29.25,ENE,68,1.8,5.1,79,0.00,,,0.00,WUHU216HW,2013-01-30 08:48:00,
2013-01-30 03:53:00,59.8,53.3,29.30,West,270,6.0,6.0,79,0.01,,,0.01,WUHU216HW,2013-01-30 08:53:00,
2013-01-30 03:58:00,58.5,52.4,29.30,WNW,293,2.9,6.0,80,0.05,,,0.05,WUHU216HW,2013-01-30 08:58:00,
2013-01-30 04:03:00,57.2,51.1,29.30,WNW,293,2.5,3.4,80,0.07,,,0.07,WUHU216HW,2013-01-30 09:03:00,
2013-01-30 04:08:00,56.5,50.8,29.30,NW,315,2.9,2.9,81,0.07,,,0.07,WUHU216HW,2013-01-30 09:08:00,
2013-01-30 04:13:00,55.8,50.1,29.29,West,270,3.1,3.1,81,0.08,,,0.08,WUHU216HW,2013-01-30 09:13:00,
2013-01-30 04:18:00,55.3,49.1,29.30,NW,315,1.1,3.1,80,0.08,,,0.08,WUHU216HW,2013-01-30 09:18:00,
2013-01-30 04:23:00,54.9,48.9,29.30,NW,315,2.0,2.9,80,0.08,,,0.08,WUHU216HW,2013-01-30 09:23:00,
2013-01-30 04:28:00,54.4,48.3,29.29,WNW,293,0.4,2.9,80,0.08,,,0.08,WUHU216HW,2013-01-30 09:28:00,
2013-01-30 04:33:00,54.2,48.2,29.30,WSW,248,3.1,3.1,80,0.08,,,0.08,WUHU216HW,2013-01-30 09:33:00,
2013-01-30 04:38:00,53.8,47.9,29.30,WNW,293,0.7,3.1,80,0.08,,,0.08,WUHU216HW,2013-01-30 09:38:00,
2013-01-30 04:43:00,53.6,47.7,29.31,NW,315,0.7,1.1,80,0.09,,,0.09,WUHU216HW,2013-01-30 09:43:00,
2013-01-30 04:48:00,53.6,47.7,29.30,WNW,293,1.3,1.3,80,0.09,,,0.09,WUHU216HW,2013-01-30 09:48:00,
2013-01-30 04:53:00,53.3,47.3,29.30,WNW,293,0.0,2.0,80,0.08,,,0.10,WUHU216HW,2013-01-30 09:53:00,
2013-01-30 04:58:00,53.1,47.2,29.30,WNW,293,0.0,2.0,80,0.05,,,0.11,WUHU216HW,2013-01-30 09:58:00,
2013-01-30 05:03:00,52.9,47.0,29.30,NW,315,0.4,1.1,80,0.04,,,0.11,WUHU216HW,2013-01-30 10:03:00,
2013-01-30 05:08:00,52.7,46.8,29.30,NW,315,0.0,1.1,80,0.05,,,0.12,WUHU216HW,2013-01-30 10:08:00,
2013-01-30 05:13:00,52.6,46.6,29.30,NW,315,0.7,1.3,80,0.04,,,0.12,WUHU216HW,2013-01-30 10:13:00,
2013-01-30 05:18:00,52.6,46.6,29.31,WNW,293,1.1,1.6,80,0.04,,,0.12,WUHU216HW,2013-01-30 10:18:00,
2013-01-30 05:23:00,52.4,46.7,29.32,NW,315,0.2,1.6,81,0.04,,,0.12,WUHU216HW,2013-01-30 10:23:00,
2013-01-30 05:28:00,52.2,46.5,29.33,NW,315,0.0,0.7,81,0.05,,,0.13,WUHU216HW,2013-01-30 10:28:00,
2013-01-30 05:33:00,52.2,46.5,29.34,NW,315,0.4,0.7,81,0.06,,,0.14,WUHU216HW,2013-01-30 10:33:00,
2013-01-30 05:38:00,52.0,46.4,29.35,NW,315,0.7,1.3,81,0.07,,,0.15,WUHU216HW,2013-01-30 10:38:00,
2013-01-30 05:43:00,51.8,46.2,29.36,NW,315,0.4,1.3,81,0.06,,,0.15,WUHU216HW,2013-01-30 10:43:00,
2013-01-30 05:48:00,51.7,46.0,29.36,NW,315,0.4,2.5,81,0.07,,,0.16,WUHU216HW,2013-01-30 10:48:00,
2013-01-30 05:53:00,51.5,45.8,29.36,NW,315,1.1,2.5,81,0.06,,,0.16,WUHU216HW,2013-01-30 10:53:00,
2013-01-30 05:58:00,51.5,45.8,29.36,NNW,338,0.9,1.8,81,0.06,,,0.17,WUHU216HW,2013-01-30 10:58:00,
2013-01-30 06:03:00,51.5,45.8,29.35,NW,315,0.4,1.8,81,0.07,,,0.18,WUHU216HW,2013-01-30 11:03:00,
2013-01-30 06:08:00,51.3,45.6,29.36,NNW,338,0.4,1.6,81,0.06,,,0.18,WUHU216HW,2013-01-30 11:08:00,
2013-01-30 06:13:00,51.1,45.5,29.34,NNW,338,0.0,1.6,81,0.06,,,0.18,WUHU216HW,2013-01-30 11:13:00,
2013-01-30 06:18:00,51.1,45.5,29.33,NNW,338,0.0,0.4,81,0.06,,,0.18,WUHU216HW,2013-01-30 11:18:00,
2013-01-30 06:23:00,50.9,45.3,29.34,North,0,0.0,0.7,81,0.06,,,0.19,WUHU216HW,2013-01-30 11:23:00,
2013-01-30 06:28:00,50.8,45.1,29.33,North,0,0.0,0.7,81,0.05,,,0.19,WUHU216HW,2013-01-30 11:28:00,
2013-01-30 06:33:00,50.8,45.1,29.33,North,0,0.0,0.0,81,0.05,,,0.20,WUHU216HW,2013-01-30 11:33:00,
2013-01-30 06:38:00,50.8,45.1,29.33,North,0,0.0,0.0,81,0.05,,,0.20,WUHU216HW,2013-01-30 11:38:00,
2013-01-30 06:43:00,50.4,44.7,29.33,North,0,0.0,0.0,81,0.06,,,0.21,WUHU216HW,2013-01-30 11:43:00,
2013-01-30 06:48:00,50.4,44.7,29.31,North,0,0.2,0.7,81,0.06,,,0.22,WUHU216HW,2013-01-30 11:48:00,
2013-01-30 06:53:00,50.2,44.6,29.30,NNE,23,0.2,0.7,81,0.05,,,0.22,WUHU216HW,2013-01-30 11:53:00,
2013-01-30 06:58:00,50.0,44.4,29.31,North,0,0.0,0.4,81,0.05,,,0.22,WUHU216HW,2013-01-30 11:58:00,
2013-01-30 07:03:00,50.0,44.4,29.31,North,0,0.0,0.2,81,0.04,,,0.22,WUHU216HW,2013-01-30 12:03:00,
2013-01-30 07:08:00,50.0,44.4,29.32,North,0,0.0,0.0,81,0.04,,,0.22,WUHU216HW,2013-01-30 12:08:00,
2013-01-30 07:13:00,49.9,44.2,29.32,North,0,0.0,0.0,81,0.04,,,0.22,WUHU216HW,2013-01-30 12:13:00,
2013-01-30 07:18:00,49.7,44.4,29.32,North,0,0.0,0.0,82,0.04,,,0.22,WUHU216HW,2013-01-30 12:18:00,
2013-01-30 07:23:00,49.7,44.0,29.32,North,0,0.0,0.0,81,0.03,,,0.22,WUHU216HW,2013-01-30 12:23:00,
2013-01-30 07:28:00,49.7,44.0,29.31,North,0,0.0,0.2,81,0.03,,,0.22,WUHU216HW,2013-01-30 12:28:00,
2013-01-30 07:33:00,49.7,44.0,29.30,NE,45,1.1,1.1,81,0.02,,,0.22,WUHU216HW,2013-01-30 12:33:00,
2013-01-30 07:38:00,49.5,44.2,29.30,NE,45,0.0,1.1,82,0.02,,,0.22,WUHU216HW,2013-01-30 12:38:00,
2013-01-30 07:43:00,49.3,44.0,29.30,NE,45,0.0,0.4,82,0.01,,,0.22,WUHU216HW,2013-01-30 12:43:00,
2013-01-30 07:48:00,49.3,44.0,29.30,NE,45,0.0,0.0,82,0.00,,,0.22,WUHU216HW,2013-01-30 12:48:00,
2013-01-30 07:53:00,49.5,43.8,29.28,NE,45,0.9,0.9,81,0.00,,,0.22,WUHU216HW,2013-01-30 12:53:00,
2013-01-30 07:58:00,49.3,43.7,29.26,ENE,68,0.4,1.6,81,0.00,,,0.22,WUHU216HW,2013-01-30 12:58:00,
2013-01-30 08:03:00,49.3,43.7,29.26,ENE,68,1.1,1.6,81,0.01,,,0.23,WUHU216HW,2013-01-30 13:03:00,
2013-01-30 08:08:00,49.3,43.7,29.26,ENE,68,0.2,1.1,81,0.01,,,0.23,WUHU216HW,2013-01-30 13:08:00,
2013-01-30 08:13:00,49.3,43.7,29.26,ENE,68,0.4,0.7,81,0.01,,,0.23,WUHU216HW,2013-01-30 13:13:00,
2013-01-30 08:18:00,49.3,43.7,29.26,NNE,23,1.1,1.1,81,0.01,,,0.23,WUHU216HW,2013-01-30 13:18:00,
2013-01-30 08:23:00,49.3,43.7,29.26,ENE,68,2.2,2.2,81,0.01,,,0.23,WUHU216HW,2013-01-30 13:23:00,
2013-01-30 08:28:00,49.3,43.7,29.25,East,90,1.1,2.2,81,0.01,,,0.23,WUHU216HW,2013-01-30 13:28:00,
2013-01-30 08:33:00,49.3,43.7,29.26,ENE,68,0.4,2.2,81,0.01,,,0.23,WUHU216HW,2013-01-30 13:33:00,
2013-01-30 08:38:00,49.3,43.7,29.27,West,270,0.4,1.3,81,0.01,,,0.23,WUHU216HW,2013-01-30 13:38:00,
2013-01-30 08:43:00,49.3,44.0,29.28,NW,315,0.4,0.7,82,0.01,,,0.23,WUHU216HW,2013-01-30 13:43:00,
2013-01-30 08:48:00,49.1,43.8,29.28,NW,315,0.4,1.1,82,0.01,,,0.23,WUHU216HW,2013-01-30 13:48:00,
2013-01-30 08:53:00,49.1,43.8,29.26,SE,135,0.4,1.1,82,0.01,,,0.23,WUHU216HW,2013-01-30 13:53:00,
2013-01-30 08:58:00,49.3,44.0,29.25,NW,315,0.0,0.9,82,0.00,,,0.23,WUHU216HW,2013-01-30 13:58:00,
2013-01-30 09:03:00,49.3,43.7,29.23,ESE,113,0.4,0.9,81,0.00,,,0.23,WUHU216HW,2013-01-30 14:03:00,
2013-01-30 09:08:00,49.3,43.7,29.23,East,90,0.4,1.6,81,0.00,,,0.23,WUHU216HW,2013-01-30 14:08:00,
2013-01-30 09:13:00,49.3,43.7,29.26,WNW,293,0.2,1.6,81,0.00,,,0.23,WUHU216HW,2013-01-30 14:13:00,
2013-01-30 09:18:00,49.3,43.7,29.27,ENE,68,1.1,1.3,81,0.00,,,0.23,WUHU216HW,2013-01-30 14:18:00,
2013-01-30 09:23:00,49.3,43.7,29.26,ESE,113,1.8,1.8,81,0.00,,,0.23,WUHU216HW,2013-01-30 14:23:00,
2013-01-30 09:28:00,49.5,43.8,29.24,NE,45,1.6,1.8,81,0.00,,,0.23,WUHU216HW,2013-01-30 14:28:00,
2013-01-30 09:33:00,49.3,43.7,29.25,ESE,113,1.1,2.5,81,0.00,,,0.23,WUHU216HW,2013-01-30 14:33:00,
2013-01-30 09:38:00,49.3,43.7,29.26,East,90,0.2,2.5,81,0.00,,,0.23,WUHU216HW,2013-01-30 14:38:00,
2013-01-30 09:43:00,49.3,43.7,29.26,East,90,0.2,0.9,81,0.00,,,0.23,WUHU216HW,2013-01-30 14:43:00,
2013-01-30 09:48:00,49.3,44.0,29.28,West,270,0.4,1.1,82,0.00,,,0.23,WUHU216HW,2013-01-30 14:48:00,
2013-01-30 09:53:00,49.3,44.0,29.30,NNW,338,0.7,1.1,82,0.00,,,0.23,WUHU216HW,2013-01-30 14:53:00,
2013-01-30 09:58:00,49.3,43.7,29.29,NW,315,1.1,1.3,81,0.00,,,0.23,WUHU216HW,2013-01-30 14:58:00,
2013-01-30 10:03:00,49.3,43.7,29.28,ESE,113,0.9,1.3,81,0.00,,,0.23,WUHU216HW,2013-01-30 15:03:00,
2013-01-30 10:08:00,49.3,43.7,29.28,ESE,113,0.4,1.1,81,0.00,,,0.23,WUHU216HW,2013-01-30 15:08:00,
2013-01-30 10:13:00,49.3,43.7,29.29,NW,315,1.1,1.3,81,0.00,,,0.23,WUHU216HW,2013-01-30 15:13:00,
2013-01-30 10:18:00,49.5,43.8,29.30,NNW,338,0.4,1.8,81,0.00,,,0.23,WUHU216HW,2013-01-30 15:18:00,
2013-01-30 10:23:00,49.5,43.8,29.30,WNW,293,1.1,1.8,81,0.00,,,0.23,WUHU216HW,2013-01-30 15:23:00,
2013-01-30 10:28:00,49.7,44.0,29.31,NW,315,1.1,1.3,81,0.00,,,0.23,WUHU216HW,2013-01-30 15:28:00,
2013-01-30 10:33:00,49.9,44.2,29.33,West,270,1.8,1.8,81,0.00,,,0.23,WUHU216HW,2013-01-30 15:33:00,
2013-01-30 10:38:00,49.9,44.2,29.33,WNW,293,0.7,1.8,81,0.00,,,0.23,WUHU216HW,2013-01-30 15:38:00,
2013-01-30 10:43:00,50.0,44.4,29.31,West,270,0.4,2.0,81,0.00,,,0.23,WUHU216HW,2013-01-30 15:43:00,
2013-01-30 10:48:00,50.0,44.4,29.30,NW,315,1.1,2.0,81,0.00,,,0.23,WUHU216HW,2013-01-30 15:48:00,
2013-01-30 10:53:00,50.0,44.4,29.31,SSW,203,0.4,1.1,81,0.00,,,0.23,WUHU216HW,2013-01-30 15:53:00,
2013-01-30 10:58:00,49.9,44.2,29.31,SE,135,0.2,0.4,81,0.00,,,0.23,WUHU216HW,2013-01-30 15:58:00,
2013-01-30 11:03:00,49.9,44.2,29.30,NW,315,0.0,1.1,81,0.00,,,0.23,WUHU216HW,2013-01-30 16:03:00,
2013-01-30 11:08:00,49.9,44.2,29.30,NW,315,1.1,1.1,81,0.00,,,0.23,WUHU216HW,2013-01-30 16:08:00,
2013-01-30 11:13:00,50.0,44.4,29.30,NW,315,0.4,1.1,81,0.00,,,0.23,WUHU216HW,2013-01-30 16:13:00,
2013-01-30 11:18:00,50.0,44.4,29.29,West,270,0.4,0.7,81,0.00,,,0.23,WUHU216HW,2013-01-30 16:18:00,
2013-01-30 11:23:00,50.2,44.6,29.30,WNW,293,0.4,1.3,81,0.00,,,0.23,WUHU216HW,2013-01-30 16:23:00,
2013-01-30 11:28:00,50.4,44.7,29.28,NW,315,1.1,1.3,81,0.00,,,0.23,WUHU216HW,2013-01-30 16:28:00,
2013-01-30 11:33:00,50.6,44.9,29.27,WNW,293,0.0,1.1,81,0.00,,,0.23,WUHU216HW,2013-01-30 16:33:00,
2013-01-30 11:38:00,50.6,44.9,29.25,NW,315,0.2,1.1,81,0.00,,,0.23,WUHU216HW,2013-01-30 16:38:00,
2013-01-30 11:43:00,50.8,44.8,29.25,SW,225,0.0,1.1,80,0.00,,,0.23,WUHU216HW,2013-01-30 16:43:00,
2013-01-30 11:48:00,50.9,45.0,29.25,SSW,203,0.4,2.5,80,0.00,,,0.23,WUHU216HW,2013-01-30 16:48:00,
2013-01-30 11:53:00,51.1,45.2,29.26,WNW,293,1.1,2.5,80,0.00,,,0.23,WUHU216HW,2013-01-30 16:53:00,
2013-01-30 11:58:00,51.1,45.2,29.27,West,270,0.4,1.8,80,0.00,,,0.23,WUHU216HW,2013-01-30 16:58:00,
2013-01-30 12:03:00,51.3,45.4,29.27,West,270,0.7,1.3,80,0.00,,,0.23,WUHU216HW,2013-01-30 17:03:00,
2013-01-30 12:08:00,51.5,45.5,29.26,South,180,0.7,1.3,80,0.00,,,0.23,WUHU216HW,2013-01-30 17:08:00,
2013-01-30 12:13:00,51.7,45.7,29.26,WSW,248,1.1,2.0,80,0.00,,,0.23,WUHU216HW,2013-01-30 17:13:00,
2013-01-30 12:18:00,51.8,45.9,29.27,ESE,113,1.8,2.0,80,0.00,,,0.23,WUHU216HW,2013-01-30 17:18:00,
2013-01-30 12:23:00,51.8,45.9,29.26,NW,315,2.2,2.2,80,0.00,,,0.23,WUHU216HW,2013-01-30 17:23:00,
2013-01-30 12:28:00,51.8,45.9,29.25,NE,45,0.9,2.2,80,0.00,,,0.23,WUHU216HW,2013-01-30 17:28:00,
2013-01-30 12:33:00,51.7,45.7,29.25,NW,315,4.0,4.0,80,0.00,,,0.23,WUHU216HW,2013-01-30 17:33:00,
2013-01-30 12:38:00,51.7,45.7,29.24,WNW,293,0.4,4.0,80,0.00,,,0.23,WUHU216HW,2013-01-30 17:38:00,
2013-01-30 12:43:00,51.7,45.7,29.23,WNW,293,0.4,2.7,80,0.00,,,0.23,WUHU216HW,2013-01-30 17:43:00,
2013-01-30 12:48:00,51.7,46.0,29.22,East,90,1.8,2.7,81,0.00,,,0.23,WUHU216HW,2013-01-30 17:48:00,
2013-01-30 12:53:00,51.5,45.8,29.22,WNW,293,1.1,1.8,81,0.00,,,0.23,WUHU216HW,2013-01-30 17:53:00,
2013-01-30 12:58:00,51.5,45.8,29.21,WSW,248,0.4,1.1,81,0.00,,,0.23,WUHU216HW,2013-01-30 17:58:00,
2013-01-30 13:03:00,51.5,45.8,29.20,WNW,293,1.3,1.6,81,0.00,,,0.23,WUHU216HW,2013-01-30 18:03:00,
2013-01-30 13:08:00,51.5,45.8,29.21,SW,225,0.7,1.6,81,0.00,,,0.23,WUHU216HW,2013-01-30 18:08:00,
2013-01-30 13:13:00,51.5,45.8,29.21,WSW,248,1.3,2.2,81,0.00,,,0.23,WUHU216HW,2013-01-30 18:13:00,
2013-01-30 13:18:00,51.5,45.8,29.23,WSW,248,2.0,2.5,81,0.00,,,0.23,WUHU216HW,2013-01-30 18:18:00,
2013-01-30 13:23:00,51.7,46.0,29.22,WNW,293,2.2,2.5,81,0.00,,,0.23,WUHU216HW,2013-01-30 18:23:00,
2013-01-30 13:28:00,51.7,46.0,29.22,East,90,1.1,2.5,81,0.00,,,0.23,WUHU216HW,2013-01-30 18:28:00,
2013-01-30 13:33:00,51.5,45.8,29.21,NNE,23,1.3,3.1,81,0.00,,,0.23,WUHU216HW,2013-01-30 18:33:00,
2013-01-30 13:38:00,51.5,45.8,29.22,SSW,203,1.3,3.1,81,0.00,,,0.23,WUHU216HW,2013-01-30 18:38:00,
2013-01-30 13:43:00,51.5,45.8,29.23,SSW,203,2.5,2.9,81,0.00,,,0.23,WUHU216HW,2013-01-30 18:43:00,
2013-01-30 13:48:00,51.5,45.8,29.23,WSW,248,1.1,2.5,81,0.00,,,0.23,WUHU216HW,2013-01-30 18:48:00,
2013-01-30 13:53:00,51.5,45.8,29.22,NNW,338,0.7,2.2,81,0.00,,,0.23,WUHU216HW,2013-01-30 18:53:00,
2013-01-30 13:58:00,51.3,45.6,29.22,WSW,248,1.1,2.2,81,0.00,,,0.23,WUHU216HW,2013-01-30 18:58:00,
2013-01-30 14:03:00,51.3,45.6,29.21,NW,315,1.1,2.7,81,0.00,,,0.23,WUHU216HW,2013-01-30 19:03:00,
2013-01-30 14:08:00,51.3,45.6,29.22,WNW,293,1.8,2.7,81,0.00,,,0.23,WUHU216HW,2013-01-30 19:08:00,
2013-01-30 14:13:00,51.3,45.6,29.22,West,270,1.8,2.5,81,0.00,,,0.23,WUHU216HW,2013-01-30 19:13:00,
2013-01-30 14:18:00,51.3,45.6,29.21,WSW,248,1.8,2.5,81,0.00,,,0.23,WUHU216HW,2013-01-30 19:18:00,
2013-01-30 14:23:00,51.3,45.6,29.19,West,270,0.9,2.5,81,0.00,,,0.23,WUHU216HW,2013-01-30 19:23:00,
2013-01-30 14:28:00,51.1,45.5,29.19,WSW,248,1.1,2.2,81,0.00,,,0.23,WUHU216HW,2013-01-30 19:28:00,
2013-01-30 14:33:00,51.3,45.6,29.19,NW,315,1.6,2.9,81,0.00,,,0.23,WUHU216HW,2013-01-30 19:33:00,
2013-01-30 14:38:00,51.3,45.6,29.19,SSW,203,1.1,2.9,81,0.00,,,0.23,WUHU216HW,2013-01-30 19:38:00,
2013-01-30 14:43:00,51.3,45.6,29.18,WSW,248,2.2,2.5,81,0.00,,,0.23,WUHU216HW,2013-01-30 19:43:00,
2013-01-30 14:48:00,51.3,45.6,29.19,SW,225,1.3,2.5,81,0.00,,,0.23,WUHU216HW,2013-01-30 19:48:00,
2013-01-30 14:53:00,51.5,45.8,29.19,ENE,68,1.1,2.0,81,0.00,,,0.23,WUHU216HW,2013-01-30 19:53:00,
2013-01-30 14:58:00,51.3,45.6,29.18,NNW,338,1.1,2.0,81,0.00,,,0.23,WUHU216HW,2013-01-30 19:58:00,
2013-01-30 15:03:00,51.3,45.6,29.18,NW,315,1.6,2.0,81,0.00,,,0.23,WUHU216HW,2013-01-30 20:03:00,
2013-01-30 15:08:00,51.5,45.8,29.20,SSW,203,0.4,1.8,81,0.00,,,0.23,WUHU216HW,2013-01-30 20:08:00,
2013-01-30 15:13:00,51.5,45.8,29.18,WSW,248,1.1,1.8,81,0.00,,,0.23,WUHU216HW,2013-01-30 20:13:00,
2013-01-30 15:18:00,51.5,45.8,29.18,SE,135,0.7,3.4,81,0.00,,,0.23,WUHU216HW,2013-01-30 20:18:00,
2013-01-30 15:23:00,51.5,45.8,29.17,SW,225,1.6,3.4,81,0.00,,,0.23,WUHU216HW,2013-01-30 20:23:00,
2013-01-30 15:28:00,51.5,45.8,29.16,SW,225,1.1,3.1,81,0.00,,,0.23,WUHU216HW,2013-01-30 20:28:00,
2013-01-30 15:33:00,51.5,45.8,29.14,NNW,338,0.4,2.0,81,0.00,,,0.23,WUHU216HW,2013-01-30 20:33:00,
2013-01-30 15:38:00,51.5,45.8,29.13,ESE,113,1.3,2.5,81,0.00,,,0.23,WUHU216HW,2013-01-30 20:38:00,
2013-01-30 15:43:00,51.5,45.8,29.14,SE,135,1.1,2.5,81,0.00,,,0.23,WUHU216HW,2013-01-30 20:43:00,
2013-01-30 15:48:00,51.5,45.8,29.15,WSW,248,0.4,2.2,81,0.00,,,0.23,WUHU216HW,2013-01-30 20:48:00,
2013-01-30 15:53:00,51.3,45.6,29.16,WNW,293,0.9,2.2,81,0.00,,,0.23,WUHU216HW,2013-01-30 20:53:00,
2013-01-30 15:58:00,51.1,45.5,29.16,NW,315,1.8,1.8,81,0.00,,,0.23,WUHU216HW,2013-01-30 20:58:00,
2013-01-30 16:03:00,50.9,45.3,29.17,East,90,3.1,3.6,81,0.00,,,0.23,WUHU216HW,2013-01-30 21:03:00,
2013-01-30 16:08:00,50.9,45.3,29.18,WSW,248,1.8,4.0,81,0.00,,,0.23,WUHU216HW,2013-01-30 21:08:00,
2013-01-30 16:13:00,50.9,45.3,29.17,West,270,0.7,4.0,81,0.00,,,0.23,WUHU216HW,2013-01-30 21:13:00,
2013-01-30 16:18:00,50.9,45.3,29.17,SW,225,1.3,2.9,81,0.00,,,0.23,WUHU216HW,2013-01-30 21:18:00,
2013-01-30 16:23:00,50.8,45.1,29.17,SSW,203,1.3,2.5,81,0.00,,,0.23,WUHU216HW,2013-01-30 21:23:00,
2013-01-30 16:28:00,50.8,45.1,29.17,West,270,1.3,2.5,81,0.00,,,0.23,WUHU216HW,2013-01-30 21:28:00,
2013-01-30 16:33:00,50.8,45.1,29.17,WSW,248,1.1,2.7,81,0.00,,,0.23,WUHU216HW,2013-01-30 21:33:00,
2013-01-30 16:38:00,50.8,45.1,29.15,NW,315,1.3,2.7,81,0.00,,,0.23,WUHU216HW,2013-01-30 21:38:00,
2013-01-30 16:43:00,50.8,45.1,29.15,WNW,293,1.6,2.9,81,0.00,,,0.23,WUHU216HW,2013-01-30 21:43:00,
2013-01-30 16:48:00,50.6,44.9,29.15,WNW,293,1.1,2.9,81,0.00,,,0.23,WUHU216HW,2013-01-30 21:48:00,
2013-01-30 16:53:00,50.6,44.9,29.16,NE,45,1.3,2.5,81,0.00,,,0.23,WUHU216HW,2013-01-30 21:53:00,
2013-01-30 16:58:00,50.6,44.9,29.15,SSW,203,0.7,2.0,81,0.00,,,0.23,WUHU216HW,2013-01-30 21:58:00,
2013-01-30 17:03:00,50.6,44.9,29.14,SE,135,0.4,1.8,81,0.00,,,0.23,WUHU216HW,2013-01-30 22:03:00,
2013-01-30 17:08:00,50.6,44.9,29.14,WNW,293,1.1,2.5,81,0.00,,,0.23,WUHU216HW,2013-01-30 22:08:00,
2013-01-30 17:13:00,50.6,44.9,29.14,SSE,158,1.8,2.5,81,0.00,,,0.23,WUHU216HW,2013-01-30 22:13:00,
2013-01-30 17:18:00,50.6,44.9,29.13,SSW,203,0.4,2.2,81,0.00,,,0.23,WUHU216HW,2013-01-30 22:18:00,
2013-01-30 17:23:00,50.6,44.9,29.13,SE,135,2.5,2.5,81,0.00,,,0.23,WUHU216HW,2013-01-30 22:23:00,
2013-01-30 17:28:00,50.4,44.7,29.13,WSW,248,1.8,2.5,81,0.00,,,0.23,WUHU216HW,2013-01-30 22:28:00,
2013-01-30 17:33:00,50.4,44.7,29.13,SSW,203,0.9,2.5,81,0.00,,,0.23,WUHU216HW,2013-01-30 22:33:00,
2013-01-30 17:38:00,50.4,44.7,29.13,ESE,113,2.0,2.5,81,0.00,,,0.23,WUHU216HW,2013-01-30 22:38:00,
2013-01-30 17:43:00,50.2,44.6,29.13,ESE,113,2.7,2.7,81,0.00,,,0.23,WUHU216HW,2013-01-30 22:43:00,
2013-01-30 17:48:00,50.2,44.6,29.12,SW,225,1.3,2.7,81,0.00,,,0.23,WUHU216HW,2013-01-30 22:48:00,
2013-01-30 17:53:00,50.2,44.6,29.12,WSW,248,1.6,2.5,81,0.00,,,0.23,WUHU216HW,2013-01-30 22:53:00,
2013-01-30 17:58:00,50.0,44.4,29.12,NNW,338,0.9,2.2,81,0.00,,,0.23,WUHU216HW,2013-01-30 22:58:00,
2013-01-30 18:03:00,50.0,44.4,29.11,ESE,113,0.7,2.7,81,0.01,,,0.24,WUHU216HW,2013-01-30 23:03:00,
2013-01-30 18:08:00,49.7,44.0,29.12,SW,225,1.6,2.7,81,0.01,,,0.24,WUHU216HW,2013-01-30 23:08:00,
2013-01-30 18:13:00,49.7,44.0,29.12,NW,315,1.8,1.8,81,0.01,,,0.24,WUHU216HW,2013-01-30 23:13:00,
2013-01-30 18:18:00,49.5,43.8,29.12,WNW,293,1.6,2.2,81,0.02,,,0.25,WUHU216HW,2013-01-30 23:18:00,
2013-01-30 18:23:00,49.3,43.7,29.13,NW,315,3.6,3.6,81,0.04,,,0.27,WUHU216HW,2013-01-30 23:23:00,
2013-01-30 18:28:00,48.4,43.1,29.13,NW,315,2.0,5.1,82,0.04,,,0.27,WUHU216HW,2013-01-30 23:28:00,
2013-01-30 18:33:00,47.5,41.9,29.13,WSW,248,2.7,5.1,81,0.04,,,0.27,WUHU216HW,2013-01-30 23:33:00,
2013-01-30 18:38:00,46.6,41.1,29.13,NW,315,1.8,3.6,81,0.05,,,0.28,WUHU216HW,2013-01-30 23:38:00,
2013-01-30 18:43:00,46.3,40.8,29.13,WNW,293,2.2,5.4,81,0.05,,,0.28,WUHU216HW,2013-01-30 23:43:00,
2013-01-30 18:48:00,45.7,40.2,29.13,WNW,293,2.5,5.4,81,0.05,,,0.28,WUHU216HW,2013-01-30 23:48:00,
2013-01-30 18:53:00,45.7,40.2,29.13,NW,315,0.9,3.8,81,0.05,,,0.28,WUHU216HW,2013-01-30 23:53:00,
2013-01-30 18:58:00,45.4,39.9,29.13,NW,315,0.9,2.2,81,0.05,,,0.28,WUHU216HW,2013-01-30 23:58:00,
2013-01-30 19:03:00,45.2,39.7,29.13,South,180,1.8,2.2,81,0.04,,,0.28,WUHU216HW,2013-01-31 00:03:00,
2013-01-30 19:08:00,45.0,39.5,29.12,WSW,248,2.5,2.5,81,0.04,,,0.28,WUHU216HW,2013-01-31 00:08:00,
2013-01-30 19:13:00,44.8,39.3,29.12,NNW,338,1.8,3.4,81,0.03,,,0.28,WUHU216HW,2013-01-31 00:13:00,
2013-01-30 19:18:00,44.6,39.2,29.14,WNW,293,0.0,3.4,81,0.03,,,0.28,WUHU216HW,2013-01-31 00:18:00,
2013-01-30 19:23:00,44.5,39.0,29.13,WNW,293,0.0,3.1,81,0.01,,,0.28,WUHU216HW,2013-01-31 00:23:00,
2013-01-30 19:28:00,44.3,38.8,29.12,North,0,1.8,2.2,81,0.02,,,0.29,WUHU216HW,2013-01-31 00:28:00,
2013-01-30 19:33:00,44.1,38.6,29.12,West,270,1.8,1.8,81,0.01,,,0.29,WUHU216HW,2013-01-31 00:33:00,
2013-01-30 19:38:00,43.9,38.4,29.13,SW,225,1.1,2.5,81,0.01,,,0.29,WUHU216HW,2013-01-31 00:38:00,
2013-01-30 19:43:00,43.7,38.3,29.13,North,0,0.4,2.5,81,0.01,,,0.29,WUHU216HW,2013-01-31 00:43:00,
2013-01-30 19:48:00,43.6,38.1,29.13,WSW,248,0.9,1.3,81,0.01,,,0.29,WUHU216HW,2013-01-31 00:48:00,
2013-01-30 19:53:00,43.6,38.1,29.15,WSW,248,1.3,1.8,81,0.01,,,0.29,WUHU216HW,2013-01-31 00:53:00,
2013-01-30 19:58:00,43.2,37.7,29.15,SW,225,3.4,3.4,81,0.01,,,0.29,WUHU216HW,2013-01-31 00:58:00,
2013-01-30 20:03:00,43.0,37.5,29.14,SSE,158,0.4,3.4,81,0.02,,,0.30,WUHU216HW,2013-01-31 01:03:00,
2013-01-30 20:08:00,42.8,37.4,29.14,WNW,293,3.1,3.4,81,0.02,,,0.30,WUHU216HW,2013-01-31 01:08:00,
2013-01-30 20:13:00,42.5,37.0,29.14,WNW,293,0.4,3.1,81,0.02,,,0.30,WUHU216HW,2013-01-31 01:13:00,
2013-01-30 20:18:00,42.1,36.6,29.14,West,270,2.2,2.2,81,0.02,,,0.30,WUHU216HW,2013-01-31 01:18:00,
2013-01-30 20:23:00,41.9,36.5,29.15,ESE,113,0.4,2.7,81,0.01,,,0.30,WUHU216HW,2013-01-31 01:23:00,
2013-01-30 20:28:00,41.4,35.9,29.14,NW,315,0.4,3.4,81,0.01,,,0.30,WUHU216HW,2013-01-31 01:28:00,
2013-01-30 20:33:00,41.0,35.6,29.15,North,0,1.1,3.4,81,0.01,,,0.30,WUHU216HW,2013-01-31 01:33:00,
2013-01-30 20:38:00,40.7,35.3,29.16,NW,315,1.3,1.8,81,0.01,,,0.30,WUHU216HW,2013-01-31 01:38:00,
2013-01-30 20:43:00,40.1,34.7,29.14,WSW,248,1.3,2.5,81,0.01,,,0.30,WUHU216HW,2013-01-31 01:43:00,
2013-01-30 20:48:00,40.0,34.3,29.13,ESE,113,0.4,2.5,80,0.02,,,0.31,WUHU216HW,2013-01-31 01:48:00,
2013-01-30 20:53:00,39.8,34.1,29.13,WSW,248,2.2,2.7,80,0.02,,,0.31,WUHU216HW,2013-01-31 01:53:00,
2013-01-30 20:58:00,39.6,34.0,29.15,West,270,0.2,4.0,80,0.02,,,0.31,WUHU216HW,2013-01-31 01:58:00,
2013-01-30 21:03:00,39.4,33.9,29.15,WSW,248,1.8,4.0,80,0.01,,,0.31,WUHU216HW,2013-01-31 02:03:00,
2013-01-30 21:08:00,39.2,33.7,29.14,WNW,293,1.6,4.0,80,0.01,,,0.31,WUHU216HW,2013-01-31 02:08:00,
2013-01-30 21:13:00,39.1,33.5,29.15,West,270,3.1,4.0,80,0.01,,,0.31,WUHU216HW,2013-01-31 02:13:00,
2013-01-30 21:18:00,38.9,33.3,29.15,West,270,1.3,3.4,80,0.01,,,0.31,WUHU216HW,2013-01-31 02:18:00,
2013-01-30 21:23:00,38.7,33.4,29.14,NW,315,0.4,3.4,81,0.01,,,0.31,WUHU216HW,2013-01-31 02:23:00,
2013-01-30 21:28:00,38.5,32.9,29.15,West,270,2.9,3.1,80,0.01,,,0.31,WUHU216HW,2013-01-31 02:28:00,
2013-01-30 21:33:00,38.5,32.9,29.14,WNW,293,3.4,3.4,80,0.01,,,0.31,WUHU216HW,2013-01-31 02:33:00,
2013-01-30 21:38:00,38.5,32.9,29.13,WNW,293,0.7,4.0,80,0.01,,,0.31,WUHU216HW,2013-01-31 02:38:00,
2013-01-30 21:43:00,38.3,32.8,29.13,NW,315,3.1,4.0,80,0.01,,,0.31,WUHU216HW,2013-01-31 02:43:00,
2013-01-30 21:48:00,38.3,32.8,29.13,WNW,293,0.9,3.1,80,0.00,,,0.31,WUHU216HW,2013-01-31 02:48:00,
2013-01-30 21:53:00,38.2,32.9,29.14,WNW,293,0.4,4.0,81,0.00,,,0.31,WUHU216HW,2013-01-31 02:53:00,
2013-01-30 21:58:00,38.2,32.6,29.14,WNW,293,2.5,4.0,80,0.00,,,0.31,WUHU216HW,2013-01-31 02:58:00,
2013-01-30 22:03:00,38.2,32.6,29.14,West,270,1.1,2.5,80,0.00,,,0.31,WUHU216HW,2013-01-31 03:03:00,
2013-01-30 22:08:00,38.0,32.4,29.14,West,270,2.7,2.9,80,0.00,,,0.31,WUHU216HW,2013-01-31 03:08:00,
2013-01-30 22:13:00,38.0,32.4,29.14,West,270,0.4,2.9,80,0.00,,,0.31,WUHU216HW,2013-01-31 03:13:00,
2013-01-30 22:18:00,37.8,32.2,29.15,NW,315,2.0,2.7,80,0.00,,,0.31,WUHU216HW,2013-01-31 03:18:00,
2013-01-30 22:23:00,37.8,32.2,29.15,West,270,0.7,3.6,80,0.00,,,0.31,WUHU216HW,2013-01-31 03:23:00,
2013-01-30 22:28:00,37.6,32.0,29.15,WNW,293,2.7,4.3,80,0.00,,,0.31,WUHU216HW,2013-01-31 03:28:00,
2013-01-30 22:33:00,37.4,32.1,29.16,NW,315,3.4,4.7,81,0.00,,,0.31,WUHU216HW,2013-01-31 03:33:00,
2013-01-30 22:38:00,36.9,31.6,29.17,NNW,338,2.0,4.7,81,0.00,,,0.31,WUHU216HW,2013-01-31 03:38:00,
2013-01-30 22:43:00,36.5,31.2,29.17,WNW,293,2.5,3.8,81,0.00,,,0.31,WUHU216HW,2013-01-31 03:43:00,
2013-01-30 22:48:00,36.4,31.1,29.18,WNW,293,1.8,3.8,81,0.00,,,0.31,WUHU216HW,2013-01-31 03:48:00,
2013-01-30 22:53:00,36.0,30.7,29.19,West,270,2.9,4.5,81,0.00,,,0.31,WUHU216HW,2013-01-31 03:53:00,
2013-01-30 22:58:00,35.6,30.3,29.19,WNW,293,1.1,4.5,81,0.00,,,0.31,WUHU216HW,2013-01-31 03:58:00,
2013-01-30 23:03:00,35.3,30.0,29.19,NW,315,3.4,4.7,81,0.00,,,0.31,WUHU216HW,2013-01-31 04:03:00,
2013-01-30 23:08:00,34.9,29.6,29.20,NNW,338,3.8,6.3,81,0.00,,,0.31,WUHU216HW,2013-01-31 04:08:00,
2013-01-30 23:13:00,34.6,29.0,29.20,NNW,338,2.2,6.3,80,0.00,,,0.31,WUHU216HW,2013-01-31 04:13:00,
2013-01-30 23:18:00,34.4,28.8,29.21,WNW,293,3.8,4.7,80,0.00,,,0.31,WUHU216HW,2013-01-31 04:18:00,
2013-01-30 23:23:00,34.0,28.4,29.21,West,270,2.9,4.9,80,0.00,,,0.31,WUHU216HW,2013-01-31 04:23:00,
2013-01-30 23:28:00,33.8,28.3,29.21,WNW,293,4.5,6.3,80,0.00,,,0.31,WUHU216HW,2013-01-31 04:28:00,
2013-01-30 23:33:00,33.5,27.9,29.22,WNW,293,1.6,6.3,80,0.00,,,0.31,WUHU216HW,2013-01-31 04:33:00,
2013-01-30 23:38:00,33.3,27.8,29.22,West,270,4.9,4.9,80,0.00,,,0.31,WUHU216HW,2013-01-31 04:38:00,
2013-01-30 23:43:00,32.9,27.1,29.23,NW,315,3.1,5.8,79,0.00,,,0.31,WUHU216HW,2013-01-31 04:43:00,
2013-01-30 23:48:00,32.8,27.0,29.23,NW,315,4.0,5.8,79,0.00,,,0.31,WUHU216HW,2013-01-31 04:48:00,
2013-01-30 23:53:00,32.6,26.5,29.24,West,270,6.9,6.9,78,0.00,,,0.31,WUHU216HW,2013-01-31 04:53:00,
2013-01-30 23:58:00,32.2,26.2,29.25,West,270,5.4,10.5,78,0.00,,,0.31,WUHU216HW,2013-01-31 04:58:00,